Flight Track Log - Related Links

Times and Time Zones

All times are in EDT time to prevent confusion due to time zone crossing. See the UAL118 flight status page for this flight to view local times or setup timezone preferences in your user account.

Time Position Orientation Groundspeed Altitude Reporting Facility
EDT Latitude Longitude Course Direction KTS MPH feet Rate Location/Type
Fri 02:58:24 AM 50.0260 8.5380 249° West 183 211 900  Level FlightAware ADS-B
Fri 02:58:39 AM 50.0220 8.5220 249° West 179 206 1,600 2,743 Climbing FlightAware ADS-B
Fri 02:58:59 AM 50.0180 8.4980 255° West 178 205 2,500 2,400 Climbing FlightAware ADS-B
Fri 02:59:19 AM 50.0210 8.4720 280° West 182 209 3,200 2,000 Climbing FlightAware ADS-B
Fri 02:59:44 AM 50.0220 8.4430 273° West 183 211 4,000 1,655 Climbing FlightAware ADS-B
Fri 03:00:17 AM 50.0160 8.3950 259° West 215 247 4,800 1,448 Climbing FlightAware ADS-B
Fri 03:00:42 AM 50.0120 8.3510 262° West 247 284 5,400 1,400 Climbing FlightAware ADS-B
Fri 03:00:47 AM 50.0110 8.3460 253° West 247 284 5,500 2,267 Climbing FlightAware ADS-B
Fri 03:01:27 AM 50.0030 8.2740 260° West 266 306 7,100 2,073 Climbing FlightAware ADS-B
Fri 03:01:42 AM 50.0090 8.2470 289° West 283 326 7,400 1,200 Climbing FlightAware ADS-B
Fri 03:02:07 AM 50.0250 8.1990 297° West 312 359 7,900 1,418 Climbing FlightAware ADS-B
Fri 03:02:37 AM 50.0460 8.1360 297° West 337 388 8,700 2,000 Climbing FlightAware ADS-B
Fri 03:02:52 AM 50.0590 8.1050 303° West 340 391 9,400 2,509 Climbing FlightAware ADS-B
Fri 03:03:32 AM 50.1080 8.0390 319° Northwest 349 402 11,000 2,400 Climbing FlightAware ADS-B
Fri 03:04:12 AM 50.1630 7.9740 323° Northwest 365 420 12,600 2,400 Climbing FlightAware ADS-B
Fri 03:04:57 AM 50.2240 7.9020 323° Northwest 367 422 14,400 2,259 Climbing FlightAware ADS-B
Fri 03:05:37 AM 50.2810 7.8340 323° Northwest 382 440 15,800 1,976 Climbing FlightAware ADS-B
Fri 03:06:22 AM 50.3430 7.7610 323° Northwest 387 445 17,200 1,840 Climbing FlightAware ADS-B
Fri 03:06:52 AM 50.3890 7.7070 323° Northwest 404 465 18,100 1,632 Climbing FlightAware ADS-B
Fri 03:08:27 AM 50.5380 7.5320 323° Northwest 435 501 20,600 1,636 Climbing FlightAware ADS-B
Fri 03:09:37 AM 50.6570 7.4060 326° Northwest 448 516 22,600 1,615 Climbing FlightAware ADS-B
Fri 03:10:37 AM 50.7610 7.2980 327° Northwest 448 516 24,100 1,407 Climbing FlightAware ADS-B
Fri 03:12:02 AM 50.9130 7.1400 327° Northwest 467 537 26,000 1,280 Climbing FlightAware ADS-B
Fri 03:13:07 AM 50.9830 6.9610 302° West 442 509 27,300 1,380 Climbing FlightAware ADS-B
Fri 03:13:42 AM 51.0090 6.8570 292° West 441 507 28,300 1,440 Climbing FlightAware ADS-B
Fri 03:14:22 AM 51.0380 6.7480 293° West 443 510 29,100 1,133 Climbing FlightAware ADS-B
Fri 03:15:12 AM 51.0800 6.5970 294° West 443 510 30,000 800 Climbing FlightAware ADS-B
Fri 03:15:52 AM 51.1120 6.4820 294° West 446 513 30,300 750 Climbing FlightAware ADS-B
Fri 03:16:32 AM 51.1460 6.3630 295° West 446 513 31,000 1,200 Climbing FlightAware ADS-B
Fri 03:17:17 AM 51.1810 6.2330 293° West 444 511 32,000 1,271 Climbing FlightAware ADS-B
Fri 03:17:57 AM 51.2170 6.1050 294° West 443 510 32,800 1,125 Climbing FlightAware ADS-B
Fri 03:18:37 AM 51.2480 5.9870 293° West 442 509 33,500 847 Climbing FlightAware ADS-B
Fri 03:19:22 AM 51.2860 5.8500 294° West 438 504 34,000 353 Climbing FlightAware ADS-B
Fri 03:20:02 AM 51.3180 5.7280 293° West 436 502 34,000  Level FlightAware ADS-B
Fri 03:20:47 AM 51.3550 5.5910 293° West 434 499 34,000  Level FlightAware ADS-B
Fri 03:21:27 AM 51.3870 5.4710 293° West 434 499 34,000  Level FlightAware ADS-B
Fri 03:22:12 AM 51.4230 5.3350 293° West 432 497 34,000 -1,324 Level FlightAware ADS-B
Fri 03:22:35 AM 51.4399 5.2929 293° West 464 534 32,500  Descending FlightAware UK
Fri 03:22:52 AM 51.4520 5.2240 293° West 431 496 34,000  Climbing FlightAware ADS-B
Fri 03:23:23 AM 51.4793 5.1554 293° West 464 534 32,500  Descending FlightAware UK
Fri 03:23:37 AM 51.4870 5.0890 293° West 431 496 34,000  Climbing FlightAware ADS-B
Fri 03:24:05 AM 51.5119 5.0339 293° West 464 534 32,500  Descending FlightAware UK
Fri 03:24:17 AM 51.5130 4.9670 293° West 423 487 34,000  Climbing FlightAware ADS-B
Fri 03:24:35 AM 51.5297 4.9441 293° West 462 532 32,500 -2,500 Descending FlightAware UK
Fri 03:24:53 AM 51.5327 4.8870 275° West 462 532 32,500 4,091 Level FlightAware UK
Fri 03:24:57 AM 51.5300 4.8490 275° West 419 482 34,000  Climbing FlightAware ADS-B
Fri 03:25:17 AM 51.5432 4.8161 275° West 462 532 32,500  Descending FlightAware UK
Fri 03:25:42 AM 51.5500 4.7120 275° West 418 481 34,000  Climbing FlightAware ADS-B
Fri 03:26:11 AM 51.5645 4.6542 275° West 462 532 32,500  Descending FlightAware UK
Fri 03:26:22 AM 51.5660 4.5920 275° West 417 480 34,000  Climbing FlightAware ADS-B
Fri 03:26:41 AM 51.5769 4.5645 275° West 462 532 32,500 -2,432 Descending FlightAware UK
Fri 03:26:59 AM 51.5823 4.5087 279° West 464 534 32,500 3,462 Level FlightAware UK
Fri 03:27:07 AM 51.5840 4.4530 279° West 416 479 34,000  Climbing FlightAware ADS-B
Fri 03:27:23 AM 51.5946 4.4386 279° West 464 534 32,500  Descending FlightAware UK
Fri 03:27:47 AM 51.6000 4.3330 279° West 416 479 34,000  Climbing FlightAware ADS-B
Fri 03:28:11 AM 51.6107 4.2942 279° West 464 534 32,500  Descending FlightAware UK
Fri 03:28:32 AM 51.6160 4.2040 279° West 415 478 34,000 1,475 Climbing FlightAware ADS-B
Fri 03:29:12 AM 51.6320 4.0840 282° West 416 479 34,000  Level FlightAware ADS-B
Fri 03:29:52 AM 51.6470 3.9650 282° West 415 478 34,000  Level FlightAware ADS-B
Fri 03:30:37 AM 51.6640 3.8270 281° West 415 478 34,000 -1,139 Level FlightAware ADS-B
Fri 03:31:11 AM 51.6805 3.7528 281° West 468 539 32,500  Descending FlightAware UK
Fri 03:31:17 AM 51.6790 3.7070 281° West 412 474 34,000 1,765 Climbing FlightAware ADS-B
Fri 03:32:02 AM 51.6880 3.5740 276° West 404 465 34,000 -1,250 Level FlightAware ADS-B
Fri 03:32:29 AM 51.6913 3.5195 276° West 468 539 32,500  Descending FlightAware UK
Fri 03:32:42 AM 51.6900 3.4500 276° West 401 461 34,000  Climbing FlightAware ADS-B
Fri 03:33:11 AM 51.6921 3.3948 276° West 468 539 32,500  Descending FlightAware UK
Fri 03:33:22 AM 51.6900 3.3300 276° West 400 460 34,000  Climbing FlightAware ADS-B
Fri 03:33:41 AM 51.6921 3.3056 276° West 466 536 32,500  Descending FlightAware UK
Fri 03:34:07 AM 51.6900 3.1970 276° West 398 458 34,000  Climbing FlightAware ADS-B
Fri 03:34:29 AM 51.6916 3.1643 276° West 468 539 32,500  Descending FlightAware UK
Fri 03:34:37 AM 51.6900 3.1030 276° West 397 457 34,000  Climbing FlightAware ADS-B
Fri 03:35:05 AM 51.6912 3.0582 276° West 468 539 32,500  Descending FlightAware UK
Fri 03:35:22 AM 51.6900 2.9770 276° West 395 455 34,000  Climbing FlightAware ADS-B
Fri 03:35:46 AM 51.6905 2.9359 276° West 466 536 32,500  Descending FlightAware UK
Fri 03:36:12 AM 51.6890 2.8300 276° West 394 453 34,000  Climbing FlightAware ADS-B
Fri 03:36:34 AM 51.6899 2.7956 276° West 468 539 32,500  Descending FlightAware UK
Fri 03:36:47 AM 51.6880 2.7310 276° West 392 451 34,000  Climbing FlightAware ADS-B
Fri 03:37:11 AM 51.6893 2.6899 276° West 468 539 32,500  Descending FlightAware UK
Fri 03:37:37 AM 51.6870 2.5840 276° West 390 449 34,000  Climbing FlightAware ADS-B
Fri 03:37:52 AM 51.6885 2.5684 276° West 464 534 32,500 -2,727 Descending FlightAware UK
Fri 03:38:10 AM 51.6881 2.5163 269° West 464 534 32,500 3,600 Level FlightAware UK
Fri 03:38:17 AM 51.6860 2.4670 269° West 389 448 34,000  Climbing FlightAware ADS-B
Fri 03:38:34 AM 51.6877 2.4469 269° West 464 534 32,500 -2,571 Descending FlightAware UK
Fri 03:38:52 AM 51.6873 2.3950 269° West 464 534 32,500 3,913 Level FlightAware UK
Fri 03:38:57 AM 51.6850 2.3580 269° West 388 447 34,000 1,800 Climbing FlightAware ADS-B
Fri 03:39:42 AM 51.6840 2.2200 269° West 387 445 34,000 -1,343 Level FlightAware ADS-B
Fri 03:40:04 AM 51.6852 2.1878 269° West 464 534 32,500  Descending FlightAware UK
Fri 03:40:17 AM 51.6830 2.1210 269° West 386 444 34,000  Climbing FlightAware ADS-B
Fri 03:40:46 AM 51.6838 2.0677 269° West 464 534 32,500  Descending FlightAware UK
Fri 03:41:07 AM 51.6810 1.9850 269° West 385 443 34,000  Climbing FlightAware ADS-B
Fri 03:41:22 AM 51.6827 1.9638 269° West 464 534 32,500  Descending FlightAware UK
Fri 03:41:47 AM 51.6790 1.8600 269° West 384 442 34,000  Climbing FlightAware ADS-B
Fri 03:42:04 AM 51.6811 1.8445 269° West 464 534 32,500  Descending FlightAware UK
Fri 03:42:15 AM 51.6778 1.7748 269° West 384 442 34,000  Climbing FlightAware ADS-B
Fri 03:42:34 AM 51.6801 1.7579 269° West 464 534 32,500  Descending FlightAware UK
Fri 03:42:50 AM 51.6761 1.6773 269° West 384 442 34,000  Climbing FlightAware ADS-B
Fri 03:43:10 AM 51.6784 1.6555 269° West 466 536 32,500  Descending FlightAware UK
Fri 03:43:32 AM 51.6740 1.5561 269° West 383 441 34,000  Climbing FlightAware ADS-B
Fri 03:43:52 AM 51.6765 1.5354 269° West 466 536 32,500  Descending FlightAware UK
Fri 03:44:06 AM 51.6723 1.4609 269° West 382 440 34,000 2,000 Climbing FlightAware ADS-B
Fri 03:44:37 AM 51.6704 1.3712 268° West 381 438 34,000  Level FlightAware ADS-B
Fri 03:45:08 AM 51.6687 1.2859 268° West 380 437 34,000 -1,765 Level FlightAware ADS-B
Fri 03:45:28 AM 51.6718 1.2627 268° West 466 536 32,500  Descending FlightAware UK
Fri 03:45:41 AM 51.6668 1.1924 268° West 380 437 34,000  Climbing FlightAware ADS-B
Fri 03:45:58 AM 51.6703 1.1782 268° West 464 534 32,500  Descending FlightAware UK
Fri 03:46:12 AM 51.6647 1.1029 268° West 379 436 34,000  Climbing FlightAware ADS-B
Fri 03:46:28 AM 51.6686 1.0933 268° West 464 534 32,500  Descending FlightAware UK
Fri 03:46:43 AM 51.6629 1.0175 268° West 379 436 34,000  Climbing FlightAware ADS-B
Fri 03:47:04 AM 51.6664 0.9915 268° West 460 529 32,500  Descending FlightAware UK
Fri 03:47:13 AM 51.6608 0.9316 268° West 379 436 34,000  Climbing FlightAware ADS-B
Fri 03:47:28 AM 51.6650 0.9235 268° West 460 529 32,500  Descending FlightAware UK
Fri 03:47:44 AM 51.6586 0.8461 268° West 379 436 34,000 1,915 Climbing FlightAware ADS-B
Fri 03:48:15 AM 51.6563 0.7595 268° West 380 437 34,000  Level FlightAware ADS-B
Fri 03:48:45 AM 51.6541 0.6741 268° West 382 440 34,000 -1,875 Level FlightAware ADS-B
Fri 03:49:03 AM 51.6589 0.6511 268° West 462 532 32,500  Descending FlightAware UK
Fri 03:49:16 AM 51.6517 0.5868 268° West 383 441 34,000  Climbing FlightAware ADS-B
Fri 03:49:40 AM 51.6563 0.5472 268° West 464 534 32,500  Descending FlightAware UK
Fri 03:49:47 AM 51.6493 0.4983 268° West 384 442 34,000  Climbing FlightAware ADS-B
Fri 03:50:03 AM 51.6547 0.4786 268° West 466 536 32,500  Descending FlightAware UK
Fri 03:50:18 AM 51.6467 0.4092 268° West 385 443 34,000  Climbing FlightAware ADS-B
Fri 03:50:33 AM 51.6526 0.3920 268° West 466 536 32,500  Descending FlightAware UK
Fri 03:50:49 AM 51.6442 0.3200 268° West 386 444 34,000  Climbing FlightAware ADS-B
Fri 03:51:09 AM 51.6498 0.2878 268° West 468 539 32,500  Descending FlightAware UK
Fri 03:51:23 AM 51.6410 0.2219 268° West 388 447 34,000  Climbing FlightAware ADS-B
Fri 03:51:39 AM 51.6474 0.2015 268° West 468 539 32,500  Descending FlightAware UK
Fri 03:51:50 AM 51.6380 0.1442 268° West 386 444 34,000 3,462 Climbing FlightAware ADS-B
Fri 03:52:05 AM 51.6349 0.1028 263° West 383 441 34,000 -2,432 Level FlightAware ADS-B
Fri 03:52:27 AM 51.6372 0.0651 263° West 470 541 32,500  Descending FlightAware UK
Fri 03:52:36 AM 51.6259 0.0156 263° West 382 440 34,000  Climbing FlightAware ADS-B
Fri 03:52:51 AM 51.6299 -0.0024 263° West 470 541 32,500  Descending FlightAware UK
Fri 03:53:07 AM 51.6162 -0.0690 263° West 381 438 34,000  Climbing FlightAware ADS-B
Fri 03:53:27 AM 51.6186 -0.1035 263° West 474 545 32,500  Descending FlightAware UK
Fri 03:53:37 AM 51.6066 -0.1534 263° West 381 438 34,000 2,195 Climbing FlightAware ADS-B
Fri 03:54:08 AM 51.5966 -0.2391 259° West 382 440 34,000  Level FlightAware ADS-B
Fri 03:54:38 AM 51.5870 -0.3225 260° West 382 440 34,000 -1,837 Level FlightAware ADS-B
Fri 03:54:57 AM 51.5906 -0.3560 260° West 472 543 32,500  Descending FlightAware UK
Fri 03:55:09 AM 51.5770 -0.4077 260° West 382 440 34,000  Climbing FlightAware ADS-B
Fri 03:55:27 AM 51.5814 -0.4402 260° West 472 543 32,500  Descending FlightAware UK
Fri 03:55:39 AM 51.5673 -0.4922 260° West 382 440 34,000 2,093 Climbing FlightAware ADS-B
Fri 03:56:10 AM 51.5571 -0.5781 259° West 381 438 34,000 -1,667 Level FlightAware ADS-B
Fri 03:56:33 AM 51.5606 -0.6254 259° West 472 543 32,500  Descending FlightAware UK
Fri 03:56:40 AM 51.5472 -0.6618 259° West 381 438 34,000  Climbing FlightAware ADS-B
Fri 03:57:03 AM 51.5513 -0.7089 259° West 472 543 32,500  Descending FlightAware UK
Fri 03:57:11 AM 51.5370 -0.7464 259° West 380 437 34,000  Climbing FlightAware ADS-B
Fri 03:57:27 AM 51.5435 -0.7756 259° West 474 545 32,500  Descending FlightAware UK
Fri 03:57:38 AM 51.5291 -0.8212 259° West 383 441 34,000 3,000 Climbing FlightAware ADS-B
Fri 03:57:57 AM 51.5269 -0.8775 266° West 387 445 34,000 -2,500 Level FlightAware ADS-B
Fri 03:58:14 AM 51.5401 -0.9127 266° West 474 545 32,500  Descending FlightAware UK
Fri 03:58:23 AM 51.5295 -0.9514 266° West 394 453 34,000 2,250 Climbing FlightAware ADS-B
Fri 03:58:54 AM 51.5384 -1.0393 279° West 396 456 34,000  Level FlightAware ADS-B
Fri 03:59:24 AM 51.5475 -1.1266 280° West 396 456 34,000  Level FlightAware ADS-B
Fri 03:59:54 AM 51.5570 -1.2150 280° West 396 456 34,000  Level FlightAware ADS-B
Fri 04:00:24 AM 51.5662 -1.3017 280° West 396 456 34,000 -1,800 Level FlightAware ADS-B
Fri 04:00:44 AM 51.5864 -1.3504 280° West 466 536 32,500  Descending FlightAware UK
Fri 04:00:55 AM 51.5757 -1.3908 280° West 397 457 34,000  Climbing FlightAware ADS-B
Fri 04:01:20 AM 51.5978 -1.4557 280° West 466 536 32,500  Descending FlightAware UK
Fri 04:01:28 AM 51.5856 -1.4852 280° West 398 458 34,000  Climbing FlightAware ADS-B
Fri 04:01:44 AM 51.6053 -1.5254 280° West 466 536 32,500  Descending FlightAware UK
Fri 04:01:58 AM 51.5949 -1.5734 280° West 397 457 34,000  Climbing FlightAware ADS-B
Fri 04:02:14 AM 51.6145 -1.6134 280° West 466 536 32,500  Descending FlightAware UK
Fri 04:02:23 AM 51.6005 -1.6455 280° West 393 452 34,000  Climbing FlightAware ADS-B
Fri 04:02:38 AM 51.6175 -1.6832 280° West 462 532 32,500  Descending FlightAware UK
Fri 04:02:53 AM 51.6040 -1.7344 280° West 393 452 34,000  Climbing FlightAware ADS-B
Fri 04:03:08 AM 51.6212 -1.7712 280° West 466 536 32,500  Descending FlightAware UK
Fri 04:03:24 AM 51.6080 -1.8228 280° West 394 453 34,000 1,957 Climbing FlightAware ADS-B
Fri 04:03:54 AM 51.6124 -1.9111 275° West 396 456 34,000 -1,800 Level FlightAware ADS-B
Fri 04:04:14 AM 51.6315 -1.9657 275° West 468 539 32,500  Descending FlightAware UK
Fri 04:04:27 AM 51.6176 -2.0067 275° West 397 457 34,000  Climbing FlightAware ADS-B
Fri 04:04:44 AM 51.6365 -2.0545 275° West 468 539 32,500  Descending FlightAware UK
Fri 04:04:58 AM 51.6225 -2.0991 275° West 398 458 34,000  Climbing FlightAware ADS-B
Fri 04:05:14 AM 51.6415 -2.1430 275° West 470 541 32,500  Descending FlightAware UK
Fri 04:05:28 AM 51.6272 -2.1880 275° West 399 459 34,000  Climbing FlightAware ADS-B
Fri 04:05:50 AM 51.6472 -2.2501 275° West 472 543 32,500  Descending FlightAware UK
Fri 04:06:00 AM 51.6318 -2.2814 275° West 400 460 34,000  Climbing FlightAware ADS-B
Fri 04:06:20 AM 51.6518 -2.3401 275° West 474 545 32,500  Descending FlightAware UK
Fri 04:06:31 AM 51.6363 -2.3730 275° West 400 460 34,000  Climbing FlightAware ADS-B
Fri 04:06:49 AM 51.6562 -2.4284 275° West 472 543 32,500  Descending FlightAware UK
Fri 04:07:03 AM 51.6407 -2.4678 275° West 400 460 34,000  Climbing FlightAware ADS-B
Fri 04:07:20 AM 51.6606 -2.5185 275° West 476 548 32,500  Descending FlightAware UK
Fri 04:07:33 AM 51.6450 -2.5577 275° West 400 460 34,000  Climbing FlightAware ADS-B
Fri 04:07:50 AM 51.6650 -2.6080 275° West 478 550 32,500  Descending FlightAware UK
Fri 04:08:04 AM 51.6493 -2.6494 275° West 399 459 34,000  Climbing FlightAware ADS-B
Fri 04:08:25 AM 51.6701 -2.7146 275° West 474 545 32,500  Descending FlightAware UK
Fri 04:08:35 AM 51.6534 -2.7416 275° West 399 459 34,000 2,143 Climbing FlightAware ADS-B
Fri 04:09:07 AM 51.6577 -2.8345 274° West 399 459 34,000 -1,800 Level FlightAware ADS-B
Fri 04:09:25 AM 51.6784 -2.8922 274° West 472 543 32,500  Descending FlightAware UK
Fri 04:09:37 AM 51.6617 -2.9240 274° West 399 459 34,000  Climbing FlightAware ADS-B
Fri 04:10:01 AM 51.6832 -2.9990 274° West 472 543 32,500  Descending FlightAware UK
Fri 04:10:10 AM 51.6660 -3.0216 274° West 399 459 34,000  Climbing FlightAware ADS-B
Fri 04:10:25 AM 51.6862 -3.0697 274° West 472 543 32,500  Descending FlightAware UK
Fri 04:10:41 AM 51.6699 -3.1126 274° West 399 459 34,000  Climbing FlightAware ADS-B
Fri 04:11:07 AM 51.6918 -3.1944 274° West 468 539 32,500  Descending FlightAware UK
Fri 04:11:28 AM 51.6757 -3.2506 274° West 401 461 34,000  Climbing FlightAware ADS-B
Fri 04:11:43 AM 51.6964 -3.3016 274° West 468 539 32,500 -2,308 Descending FlightAware UK
Fri 04:12:07 AM 51.6993 -3.3733 274° West 470 541 32,500  Level FlightAware UK
Fri 04:12:31 AM 51.7021 -3.4454 274° West 476 548 32,500 3,600 Level FlightAware UK
Fri 04:12:32 AM 51.6830 -3.4370 274° West 403 464 34,000  Climbing FlightAware ADS-B
Fri 04:12:49 AM 51.7041 -3.4995 274° West 478 550 32,500 -2,571 Descending FlightAware UK
Fri 04:13:07 AM 51.7061 -3.5531 273° West 474 545 32,500 3,214 Level FlightAware UK
Fri 04:13:17 AM 51.6880 -3.5690 273° West 404 465 34,000  Climbing FlightAware ADS-B
Fri 04:13:43 AM 51.7102 -3.6614 273° West 472 543 32,500  Descending FlightAware UK
Fri 04:13:57 AM 51.6920 -3.6820 273° West 404 465 34,000  Climbing FlightAware ADS-B
Fri 04:14:13 AM 51.7135 -3.7517 273° West 474 545 32,500 -2,647 Descending FlightAware UK
Fri 04:14:31 AM 51.7155 -3.8059 273° West 474 545 32,500 3,103 Level FlightAware UK
Fri 04:14:42 AM 51.6970 -3.8270 273° West 405 466 34,000  Climbing FlightAware ADS-B
Fri 04:15:01 AM 51.7188 -3.8957 273° West 472 543 32,500 -2,432 Descending FlightAware UK
Fri 04:15:19 AM 51.7207 -3.9499 273° West 472 543 32,500 4,286 Level FlightAware UK
Fri 04:15:22 AM 51.7010 -3.9430 273° West 405 466 34,000  Climbing FlightAware ADS-B
Fri 04:15:37 AM 51.7226 -4.0042 273° West 470 541 32,500 -2,308 Descending FlightAware UK
Fri 04:16:01 AM 51.7251 -4.0766 273° West 470 541 32,500 3,000 Level FlightAware UK
Fri 04:16:07 AM 51.7070 -4.0850 273° West 407 468 34,000  Climbing FlightAware ADS-B
Fri 04:16:31 AM 51.7281 -4.1674 273° West 470 541 32,500  Descending FlightAware UK
Fri 04:16:47 AM 51.7100 -4.1990 273° West 409 471 34,000 1,607 Climbing FlightAware ADS-B
Fri 04:17:27 AM 51.7140 -4.3240 273° West 412 474 34,000 -1,607 Level FlightAware ADS-B
Fri 04:17:43 AM 51.7349 -4.3872 273° West 470 541 32,500  Descending FlightAware UK
Fri 04:18:12 AM 51.7190 -4.4610 273° West 415 478 34,000 1,304 Climbing FlightAware ADS-B
Fri 04:18:52 AM 51.7220 -4.5860 272° West 416 479 34,000 -1,343 Level FlightAware ADS-B
Fri 04:19:19 AM 51.7439 -4.6835 272° West 472 543 32,500  Descending FlightAware UK
Fri 04:19:37 AM 51.7270 -4.7270 272° West 419 482 34,000 1,552 Climbing FlightAware ADS-B
Fri 04:20:17 AM 51.7300 -4.8530 272° West 420 483 34,000 -1,525 Level FlightAware ADS-B
Fri 04:20:36 AM 51.7504 -4.9257 272° West 480 552 32,500 -2,432 Descending FlightAware UK
Fri 04:20:54 AM 51.7519 -4.9817 272° West 474 545 32,500 4,286 Level FlightAware UK
Fri 04:20:57 AM 51.7340 -4.9790 272° West 420 483 34,000  Climbing FlightAware ADS-B
Fri 04:21:12 AM 51.7533 -5.0378 272° West 476 548 32,500 -2,727 Descending FlightAware UK
Fri 04:21:30 AM 51.7547 -5.0939 272° West 476 548 32,500 3,000 Level FlightAware UK
Fri 04:21:42 AM 51.7380 -5.1140 272° West 422 486 34,000  Climbing FlightAware ADS-B
Fri 04:22:00 AM 51.7571 -5.1877 272° West 478 550 32,500 -2,500 Descending FlightAware UK
Fri 04:22:18 AM 51.7585 -5.2441 272° West 476 548 32,500 4,091 Level FlightAware UK
Fri 04:22:22 AM 51.7410 -5.2410 272° West 423 487 34,000  Climbing FlightAware ADS-B
Fri 04:22:42 AM 51.7602 -5.3193 272° West 478 550 32,500 -2,368 Descending FlightAware UK
Fri 04:23:00 AM 51.7614 -5.3758 272° West 476 548 32,500 3,600 Level FlightAware UK
Fri 04:23:07 AM 51.7440 -5.3860 272° West 424 488 34,000  Climbing FlightAware ADS-B
Fri 04:23:24 AM 51.7630 -5.4504 272° West 478 550 32,500 -2,571 Descending FlightAware UK
Fri 04:23:42 AM 51.7641 -5.5070 272° West 476 548 32,500 3,913 Level FlightAware UK
Fri 04:23:47 AM 51.7480 -5.5120 272° West 425 489 34,000  Climbing FlightAware ADS-B
Fri 04:24:06 AM 51.7657 -5.5825 272° West 478 550 32,500 -2,432 Descending FlightAware UK
Fri 04:24:24 AM 51.7669 -5.6392 272° West 478 550 32,500 3,462 Level FlightAware UK
Fri 04:24:32 AM 51.7510 -5.6510 272° West 426 490 34,000  Climbing FlightAware ADS-B
Fri 04:24:48 AM 51.7686 -5.7149 272° West 476 548 32,500 -2,647 Descending FlightAware UK
Fri 04:25:06 AM 51.7697 -5.7718 272° West 474 545 32,500 3,750 Level FlightAware UK
Fri 04:25:12 AM 51.7530 -5.7800 272° West 427 491 34,000  Climbing FlightAware ADS-B
Fri 04:25:30 AM 51.7686 -5.8477 272° West 476 548 32,500 -2,500 Descending FlightAware UK
Fri 04:25:48 AM 51.7666 -5.9044 267° West 476 548 32,500 3,333 Level FlightAware UK
Fri 04:25:57 AM 51.7500 -5.9250 267° West 425 489 34,000  Climbing FlightAware ADS-B
Fri 04:26:12 AM 51.7637 -5.9798 267° West 478 550 32,500 -2,727 Descending FlightAware UK
Fri 04:26:30 AM 51.7612 -6.0357 266° West 478 550 32,500 3,600 Level FlightAware UK
Fri 04:26:37 AM 51.7440 -6.0510 266° West 426 490 34,000  Climbing FlightAware ADS-B
Fri 04:26:54 AM 51.7574 -6.1110 266° West 478 550 32,500  Descending FlightAware UK
Fri 04:27:12 AM 51.7390 -6.1590 266° West 425 489 34,000  Climbing FlightAware ADS-B
Fri 04:27:30 AM 51.7513 -6.2236 266° West 476 548 32,500 -2,500 Descending FlightAware UK
Fri 04:27:48 AM 51.7486 -6.2800 266° West 474 545 32,500 3,333 Level FlightAware UK
Fri 04:27:57 AM 51.7330 -6.2990 266° West 426 490 34,000  Climbing FlightAware ADS-B
Fri 04:28:12 AM 51.7447 -6.3551 266° West 476 548 32,500 -2,727 Descending FlightAware UK
Fri 04:28:30 AM 51.7417 -6.4115 265° West 478 550 32,500 3,000 Level FlightAware UK
Fri 04:28:42 AM 51.7260 -6.4420 265° West 426 490 34,000  Climbing FlightAware ADS-B
Fri 04:29:00 AM 51.7371 -6.5057 265° West 476 548 32,500 -2,500 Descending FlightAware UK
Fri 04:29:18 AM 51.7342 -6.5621 265° West 474 545 32,500 4,091 Level FlightAware UK
Fri 04:29:22 AM 51.7200 -6.5670 265° West 426 490 34,000  Climbing FlightAware ADS-B
Fri 04:29:42 AM 51.7307 -6.6374 265° West 476 548 32,500 -2,368 Descending FlightAware UK
Fri 04:30:00 AM 51.7278 -6.6937 265° West 476 548 32,500 3,600 Level FlightAware UK
Fri 04:30:07 AM 51.7140 -6.7130 265° West 425 489 34,000  Climbing FlightAware ADS-B
Fri 04:30:24 AM 51.7240 -6.7688 265° West 472 543 32,500 -2,571 Descending FlightAware UK
Fri 04:30:42 AM 51.7213 -6.8251 266° West 472 543 32,500 3,913 Level FlightAware UK
Fri 04:30:47 AM 51.7080 -6.8400 266° West 426 490 34,000  Climbing FlightAware ADS-B
Fri 04:31:06 AM 51.7173 -6.9001 266° West 472 543 32,500 -2,432 Descending FlightAware UK
Fri 04:31:24 AM 51.7144 -6.9564 265° West 474 545 32,500 3,462 Level FlightAware UK
Fri 04:31:32 AM 51.7010 -6.9790 265° West 427 491 34,000  Climbing FlightAware ADS-B
Fri 04:31:48 AM 51.7106 -7.0316 265° West 472 543 32,500 -2,647 Descending FlightAware UK
Fri 04:32:06 AM 51.7074 -7.0881 265° West 474 545 32,500 3,750 Level FlightAware UK
Fri 04:32:12 AM 51.6940 -7.1070 265° West 427 491 34,000  Climbing FlightAware ADS-B
Fri 04:32:30 AM 51.7031 -7.1628 265° West 474 545 32,500 -2,500 Descending FlightAware UK
Fri 04:32:48 AM 51.6998 -7.2192 265° West 476 548 32,500 4,091 Level FlightAware UK
Fri 04:32:52 AM 51.6880 -7.2330 265° West 428 493 34,000  Climbing FlightAware ADS-B
Fri 04:33:12 AM 51.6955 -7.2946 265° West 474 545 32,500 -2,368 Descending FlightAware UK
Fri 04:33:30 AM 51.6925 -7.3511 265° West 474 545 32,500 3,600 Level FlightAware UK
Fri 04:33:37 AM 51.6820 -7.3570 265° West 428 493 34,000  Climbing FlightAware ADS-B
Fri 04:33:54 AM 51.6886 -7.4264 265° West 472 543 32,500 -2,571 Descending FlightAware UK
Fri 04:34:12 AM 51.6855 -7.4830 265° West 470 541 32,500 5,000 Level FlightAware UK
Fri 04:34:12 AM 51.6750 -7.4760 265° West 428 493 34,000  Climbing FlightAware ADS-B
Fri 04:34:30 AM 51.6821 -7.5395 265° West 468 539 32,500 -2,500 Descending FlightAware UK
Fri 04:34:48 AM 51.6788 -7.5960 265° West 470 541 32,500 4,091 Level FlightAware UK
Fri 04:34:52 AM 51.6690 -7.5940 265° West 429 494 34,000  Climbing FlightAware ADS-B
Fri 04:35:12 AM 51.6741 -7.6716 265° West 470 541 32,500 -2,368 Descending FlightAware UK
Fri 04:35:30 AM 51.6708 -7.7283 265° West 472 543 32,500  Level FlightAware UK
Fri 04:35:48 AM 51.6674 -7.7852 265° West 472 543 32,500 4,091 Level FlightAware UK
Fri 04:35:52 AM 51.6590 -7.7760 265° West 431 496 34,000  Climbing FlightAware ADS-B
Fri 04:36:12 AM 51.6628 -7.8611 265° West 470 541 32,500 -2,368 Descending FlightAware UK
Fri 04:36:30 AM 51.6594 -7.9181 265° West 466 536 32,500 3,600 Level FlightAware UK
Fri 04:36:37 AM 51.6490 -7.9500 265° West 432 497 34,000  Climbing FlightAware ADS-B
Fri 04:36:54 AM 51.6548 -7.9942 265° West 468 539 32,500 -2,571 Descending FlightAware UK
Fri 04:37:12 AM 51.6510 -8.0514 264° West 466 536 32,500 5,000 Level FlightAware UK
Fri 04:37:12 AM 51.6430 -8.0490 264° West 434 499 34,000  Climbing FlightAware ADS-B
Fri 04:37:30 AM 51.6474 -8.1087 264° West 472 543 32,500 -2,500 Descending FlightAware UK
Fri 04:37:48 AM 51.6437 -8.1661 264° West 470 541 32,500 3,333 Level FlightAware UK
Fri 04:37:57 AM 51.6340 -8.2000 264° West 436 502 34,000  Climbing FlightAware ADS-B
Fri 04:38:12 AM 51.6387 -8.2427 264° West 470 541 32,500 -2,727 Descending FlightAware UK
Fri 04:38:30 AM 51.6344 -8.2996 263° West 472 543 32,500  Level FlightAware UK
Fri 04:38:48 AM 51.6306 -8.3572 264° West 470 541 32,500 3,333 Level FlightAware UK
Fri 04:38:57 AM 51.6230 -8.3810 264° West 437 503 34,000  Climbing FlightAware ADS-B
Fri 04:39:12 AM 51.6257 -8.4341 264° West 472 543 32,500 -2,727 Descending FlightAware UK
Fri 04:39:30 AM 51.6219 -8.4918 264° West 472 543 32,500 3,600 Level FlightAware UK
Fri 04:39:37 AM 51.6140 -8.5290 264° West 439 505 34,000  Climbing FlightAware ADS-B
Fri 04:39:54 AM 51.6168 -8.5688 264° West 472 543 32,500 -2,571 Descending FlightAware UK
Fri 04:40:12 AM 51.6128 -8.6268 264° West 472 543 32,500 3,643 Level FlightAware UK
Fri 04:40:22 AM 51.6050 -8.6740 264° West 439 505 34,200 800 Climbing FlightAware ADS-B
Fri 04:40:42 AM 51.6062 -8.7232 264° West 474 545 32,900 -1,421 Descending FlightAware UK
Fri 04:41:00 AM 51.6022 -8.7812 264° West 474 545 33,300 5,700 Climbing FlightAware UK
Fri 04:41:02 AM 51.5970 -8.7930 264° West 441 507 34,800 1,000 Climbing FlightAware ADS-B
Fri 04:41:18 AM 51.5981 -8.8392 264° West 478 550 33,600 -1,235 Descending FlightAware UK
Fri 04:41:36 AM 51.5941 -8.8969 264° West 474 545 34,100 4,345 Climbing FlightAware UK
Fri 04:41:47 AM 51.5880 -8.9410 264° West 434 499 35,700 600 Climbing FlightAware ADS-B
Fri 04:42:06 AM 51.5877 -8.9925 264° West 470 541 34,400 450 Descending FlightAware UK
Fri 04:42:27 AM 51.5790 -9.0780 264° West 438 504 36,000 1,455 Climbing FlightAware ADS-B
Fri 04:43:12 AM 51.5690 -9.2210 264° West 439 505 36,000  Level FlightAware ADS-B
Fri 04:44:07 AM 51.5570 -9.3890 264° West 441 507 36,000  Level FlightAware ADS-B
Fri 04:44:47 AM 51.5480 -9.5200 264° West 443 510 36,000  Level FlightAware ADS-B
Fri 04:45:32 AM 51.5370 -9.6650 263° West 445 512 36,000  Level FlightAware ADS-B
Fri 04:46:12 AM 51.5280 -9.7950 264° West 445 512 36,000  Level FlightAware ADS-B
Fri 04:46:47 AM 51.5200 -9.9010 263° West 444 511 36,000  Level FlightAware ADS-B
Fri 04:47:27 AM 51.5090 -10.0440 263° West 444 511 36,000  Level FlightAware ADS-B
Fri 04:48:17 AM 51.4950 -10.2210 263° West 447 514 36,000  Level FlightAware ADS-B
Fri 04:49:12 AM 51.4810 -10.3910 263° West 446 513 36,000  Level FlightAware ADS-B
Fri 04:49:52 AM 51.4710 -10.5210 263° West 446 513 36,000  Level FlightAware ADS-B
Fri 04:50:37 AM 51.4590 -10.6670 263° West 444 511 36,000  Level FlightAware ADS-B
Fri 04:51:32 AM 51.4430 -10.8500 262° West 444 511 36,000  Level FlightAware ADS-B
Fri 04:52:12 AM 51.4330 -10.9720 263° West 442 509 36,000  Level FlightAware ADS-B
Fri 04:52:52 AM 51.4210 -11.1080 262° West 441 507 36,000  Level FlightAware ADS-B
Fri 04:53:37 AM 51.4100 -11.2400 262° West 441 507 36,000  Level FlightAware ADS-B
Fri 04:54:22 AM 51.3970 -11.3830 262° West 443 510 36,000  Level FlightAware ADS-B
Fri 04:55:02 AM 51.3840 -11.5120 261° West 443 510 36,000  Level FlightAware ADS-B
Fri 04:55:42 AM 51.3730 -11.6230 261° West 443 510 36,000  Level FlightAware ADS-B
Fri 04:56:22 AM 51.3630 -11.7330 262° West 443 510 36,000  Level FlightAware ADS-B
Fri 04:57:02 AM 51.3520 -11.8430 261° West 443 510 36,000  Level FlightAware ADS-B
Fri 04:57:52 AM 51.3380 -11.9810 261° West 443 510 36,000  Level FlightAware ADS-B
Fri 04:58:32 AM 51.3270 -12.0910 261° West 443 510 36,000  Level FlightAware ADS-B
Fri 04:59:12 AM 51.3160 -12.2010 261° West 443 510 36,000  Level FlightAware ADS-B
Fri 04:59:52 AM 51.3050 -12.3110 261° West 443 510 36,000  Level FlightAware ADS-B
Fri 05:00:42 AM 51.2920 -12.4490 261° West 443 510 36,000  Level FlightAware ADS-B
Fri 05:01:12 AM 51.2830 -12.5310 260° West 443 510 36,000  Level FlightAware ADS-B
Fri 05:02:02 AM 51.2700 -12.6690 261° West 443 510 36,000  Level FlightAware ADS-B
Fri 05:02:42 AM 51.2590 -12.7790 261° West 443 510 36,000  Level FlightAware ADS-B
Fri 05:03:22 AM 51.2480 -12.8890 261° West 443 510 36,000  Level FlightAware ADS-B
Fri 05:04:12 AM 51.2340 -13.0260 261° West 443 510 36,000  Level FlightAware ADS-B
Fri 05:06:00 AM 51.2718 -13.3561 280° West  Level Estimated
Fri 05:07:00 AM 51.2924 -13.5398 280° West  Level Estimated
Fri 05:08:00 AM 51.3126 -13.7236 280° West  Level Estimated
Fri 05:09:00 AM 51.3326 -13.9075 280° West  Level Estimated
Fri 05:10:00 AM 51.3524 -14.0917 280° West  Level Estimated
Fri 05:11:00 AM 51.3718 -14.2760 280° West  Level Estimated
Fri 05:12:00 AM 51.3909 -14.4604 280° West  Level Estimated
Fri 05:13:00 AM 51.4098 -14.6450 279° West  Level Estimated
Fri 05:14:00 AM 51.4283 -14.8297 279° West  Level Estimated
Fri 05:15:00 AM 51.4466 -15.0146 279° West  Level Estimated
Fri 05:16:00 AM 51.4646 -15.1997 279° West  Level Estimated
Fri 05:17:00 AM 51.4823 -15.3848 279° West  Level Estimated
Fri 05:18:00 AM 51.4997 -15.5702 279° West  Level Estimated
Fri 05:19:00 AM 51.5168 -15.7556 278° West  Level Estimated
Fri 05:20:00 AM 51.5336 -15.9412 278° West  Level Estimated
Fri 05:21:00 AM 51.5501 -16.1270 278° West  Level Estimated
Fri 05:22:00 AM 51.5663 -16.3129 278° West  Level Estimated
Fri 05:23:00 AM 51.5822 -16.4989 278° West  Level Estimated
Fri 05:24:00 AM 51.5985 -16.6930 278° West  Level Estimated
Fri 05:25:00 AM 51.6145 -16.8872 278° West  Level Estimated
Fri 05:26:00 AM 51.6302 -17.0816 277° West  Level Estimated
Fri 05:27:00 AM 51.6455 -17.2761 277° West  Level Estimated
Fri 05:28:00 AM 51.6605 -17.4707 277° West  Level Estimated
Fri 05:29:00 AM 51.6752 -17.6655 277° West  Level Estimated
Fri 05:30:00 AM 51.6896 -17.8604 277° West  Level Estimated
Fri 05:31:00 AM 51.7036 -18.0554 277° West  Level Estimated
Fri 05:32:00 AM 51.7173 -18.2506 277° West  Level Estimated
Fri 05:33:00 AM 51.7307 -18.4458 276° West  Level Estimated
Fri 05:34:00 AM 51.7438 -18.6412 276° West  Level Estimated
Fri 05:35:00 AM 51.7565 -18.8367 276° West  Level Estimated
Fri 05:36:00 AM 51.7690 -19.0322 276° West  Level Estimated
Fri 05:37:00 AM 51.7811 -19.2279 276° West  Level Estimated
Fri 05:38:00 AM 51.7929 -19.4237 276° West  Level Estimated
Fri 05:39:00 AM 51.8043 -19.6196 275° West  Level Estimated
Fri 05:40:00 AM 51.8154 -19.8157 275° West  Level Estimated
Fri 05:40:00 AM 51.0000 -20.0000 265° West 463 533 36,000  Level ETMS Enhanced Traffic Management System
Fri 05:41:00 AM 51.8262 -20.0117 275° West  Level Estimated
Fri 05:42:00 AM 51.8367 -20.2079 275° West  Level Estimated
Fri 05:43:00 AM 51.8469 -20.4042 275° West  Level Estimated
Fri 05:44:00 AM 51.8567 -20.6006 275° West  Level Estimated
Fri 05:45:00 AM 51.8662 -20.7970 275° West  Level Estimated
Fri 05:46:00 AM 50.9121 -21.4231 264° West 463 533 36,000  Level FlightAware Transoceanic
Fri 05:47:00 AM 50.8981 -21.6259 264° West 463 533 36,000  Level FlightAware Transoceanic
Fri 05:48:00 AM 50.8838 -21.8287 264° West 463 533 36,000  Level FlightAware Transoceanic
Fri 05:49:00 AM 50.8691 -22.0312 263° West 463 533 36,000  Level FlightAware Transoceanic
Fri 05:50:00 AM 50.8541 -22.2337 263° West 463 533 36,000  Level FlightAware Transoceanic
Fri 05:51:00 AM 50.8387 -22.4361 263° West 463 533 36,000  Level FlightAware Transoceanic
Fri 05:52:00 AM 50.8230 -22.6382 263° West 463 533 36,000  Level FlightAware Transoceanic
Fri 05:53:00 AM 50.8069 -22.8403 263° West 463 533 36,000  Level FlightAware Transoceanic
Fri 05:54:00 AM 50.7905 -23.0422 263° West 463 533 36,000  Level FlightAware Transoceanic
Fri 05:55:00 AM 50.7737 -23.2440 262° West 463 533 36,000  Level FlightAware Transoceanic
Fri 05:56:00 AM 50.7566 -23.4456 262° West 463 533 36,000  Level FlightAware Transoceanic
Fri 05:57:00 AM 50.7391 -23.6471 262° West 463 533 36,000  Level FlightAware Transoceanic
Fri 05:58:00 AM 50.7213 -23.8484 262° West 463 533 36,000  Level FlightAware Transoceanic
Fri 05:59:00 AM 50.7031 -24.0496 262° West 463 533 36,000  Level FlightAware Transoceanic
Fri 06:00:00 AM 50.6846 -24.2506 262° West 463 533 36,000  Level FlightAware Transoceanic
Fri 06:01:00 AM 50.6658 -24.4515 261° West 463 533 36,000  Level FlightAware Transoceanic
Fri 06:02:00 AM 50.6466 -24.6522 261° West 463 533 36,000  Level FlightAware Transoceanic
Fri 06:03:00 AM 50.6270 -24.8527 261° West 463 533 36,000  Level FlightAware Transoceanic
Fri 06:04:00 AM 50.6072 -25.0531 261° West 463 533 36,000  Level FlightAware Transoceanic
Fri 06:05:00 AM 50.5869 -25.2533 261° West 463 533 36,000  Level FlightAware Transoceanic
Fri 06:06:00 AM 50.5664 -25.4533 261° West 463 533 36,000  Level FlightAware Transoceanic
Fri 06:07:00 AM 50.5454 -25.6531 261° West 463 533 36,000  Level FlightAware Transoceanic
Fri 06:08:00 AM 50.5242 -25.8528 260° West 463 533 36,000  Level FlightAware Transoceanic
Fri 06:09:00 AM 50.5026 -26.0523 260° West 463 533 36,000  Level FlightAware Transoceanic
Fri 06:10:00 AM 50.4807 -26.2516 260° West 463 533 36,000  Level FlightAware Transoceanic
Fri 06:11:00 AM 50.4584 -26.4507 260° West 463 533 36,000  Level FlightAware Transoceanic
Fri 06:12:00 AM 50.4358 -26.6496 260° West 463 533 36,000  Level FlightAware Transoceanic
Fri 06:13:00 AM 50.4128 -26.8483 260° West 463 533 36,000  Level FlightAware Transoceanic
Fri 06:14:00 AM 50.3895 -27.0469 259° West 463 533 36,000  Level FlightAware Transoceanic
Fri 06:15:00 AM 50.3659 -27.2452 259° West 463 533 36,000  Level FlightAware Transoceanic
Fri 06:16:00 AM 50.3419 -27.4433 259° West 463 533 36,000  Level FlightAware Transoceanic
Fri 06:17:00 AM 50.3176 -27.6413 259° West 463 533 36,000  Level FlightAware Transoceanic
Fri 06:18:00 AM 50.2930 -27.8390 259° West 463 533 36,000  Level FlightAware Transoceanic
Fri 06:19:00 AM 50.2680 -28.0365 259° West 463 533 36,000  Level FlightAware Transoceanic
Fri 06:20:00 AM 50.2427 -28.2339 259° West 463 533 36,000  Level FlightAware Transoceanic
Fri 06:21:00 AM 50.2171 -28.4310 258° West 463 533 36,000  Level FlightAware Transoceanic
Fri 06:22:00 AM 50.1911 -28.6279 258° West 463 533 36,000  Level FlightAware Transoceanic
Fri 06:23:00 AM 50.1648 -28.8246 258° West 463 533 36,000  Level FlightAware Transoceanic
Fri 06:24:00 AM 50.1381 -29.0210 258° West 463 533 36,000  Level FlightAware Transoceanic
Fri 06:25:00 AM 50.1112 -29.2173 258° West 463 533 36,000  Level FlightAware Transoceanic
Fri 06:26:00 AM 50.0839 -29.4133 258° West 463 533 36,000  Level FlightAware Transoceanic
Fri 06:27:00 AM 50.0563 -29.6091 258° West 463 533 36,000  Level FlightAware Transoceanic
Fri 06:28:00 AM 50.0283 -29.8047 257° West 463 533 36,000  Level FlightAware Transoceanic
Fri 06:29:00 AM 50.0015 -29.9894 257° West  Level FlightAware Approximate
Fri 06:30:00 AM 49.9746 -30.1740 257° West  Level FlightAware Approximate
Fri 06:31:00 AM 49.9751 -30.1630 257° West  Level FlightAware Approximate
Fri 06:31:00 AM 50.0000 -30.0000 257° West 483 556 36,000  Level ETMS Enhanced Traffic Management System
Fri 06:32:00 AM 49.9467 -30.3470 257° West  Level FlightAware Approximate
Fri 06:33:00 AM 49.9180 -30.5307 256° West  Level FlightAware Approximate
Fri 06:34:00 AM 49.8890 -30.7142 256° West  Level FlightAware Approximate
Fri 06:35:00 AM 49.8598 -30.8974 256° West  Level FlightAware Approximate
Fri 06:36:00 AM 49.8302 -31.0805 256° West  Level FlightAware Approximate
Fri 06:37:00 AM 49.7444 -31.6200 256° West 483 556 36,000  Level FlightAware Transoceanic
Fri 06:38:00 AM 49.7109 -31.8213 255° West 483 556 36,000  Level FlightAware Transoceanic
Fri 06:39:00 AM 49.6770 -32.0223 255° West 483 556 36,000  Level FlightAware Transoceanic
Fri 06:40:00 AM 49.6428 -32.2230 255° West 483 556 36,000  Level FlightAware Transoceanic
Fri 06:41:00 AM 49.6082 -32.4235 255° West 483 556 36,000  Level FlightAware Transoceanic
Fri 06:42:00 AM 49.5733 -32.6236 255° West 483 556 36,000  Level FlightAware Transoceanic
Fri 06:43:00 AM 49.5381 -32.8235 255° West 483 556 36,000  Level FlightAware Transoceanic
Fri 06:44:00 AM 49.5024 -33.0231 255° West 483 556 36,000  Level FlightAware Transoceanic
Fri 06:45:00 AM 49.4665 -33.2224 254° West 483 556 36,000  Level FlightAware Transoceanic
Fri 06:46:00 AM 49.4302 -33.4214 254° West 483 556 36,000  Level FlightAware Transoceanic
Fri 06:47:00 AM 49.3936 -33.6200 254° West 483 556 36,000  Level FlightAware Transoceanic
Fri 06:48:00 AM 49.3566 -33.8185 254° West 483 556 36,000  Level FlightAware Transoceanic
Fri 06:49:00 AM 49.3193 -34.0165 254° West 483 556 36,000  Level FlightAware Transoceanic
Fri 06:50:00 AM 49.2817 -34.2144 254° West 483 556 36,000  Level FlightAware Transoceanic
Fri 06:51:00 AM 49.2437 -34.4118 254° West 483 556 36,000  Level FlightAware Transoceanic
Fri 06:52:00 AM 49.2053 -34.6090 253° West 483 556 36,000  Level FlightAware Transoceanic
Fri 06:53:00 AM 49.1667 -34.8059 253° West 483 556 36,000  Level FlightAware Transoceanic
Fri 06:54:00 AM 49.1277 -35.0025 253° West 483 556 36,000  Level FlightAware Transoceanic
Fri 06:55:00 AM 49.0884 -35.1987 253° West 483 556 36,000  Level FlightAware Transoceanic
Fri 06:56:00 AM 49.0487 -35.3947 253° West 483 556 36,000  Level FlightAware Transoceanic
Fri 06:57:00 AM 49.0087 -35.5903 253° West 483 556 36,000  Level FlightAware Transoceanic
Fri 06:58:00 AM 48.9684 -35.7857 252° West 483 556 36,000  Level FlightAware Transoceanic
Fri 06:59:00 AM 48.9278 -35.9807 252° West 483 556 36,000  Level FlightAware Transoceanic
Fri 07:00:00 AM 48.8868 -36.1754 252° West 483 556 36,000  Level FlightAware Transoceanic
Fri 07:01:00 AM 48.8455 -36.3697 252° West 483 556 36,000  Level FlightAware Transoceanic
Fri 07:02:00 AM 48.8039 -36.5638 252° West 483 556 36,000  Level FlightAware Transoceanic
Fri 07:03:00 AM 48.7619 -36.7575 252° West 483 556 36,000  Level FlightAware Transoceanic
Fri 07:04:00 AM 48.7197 -36.9509 252° West 483 556 36,000  Level FlightAware Transoceanic
Fri 07:05:00 AM 48.6771 -37.1440 251° West 483 556 36,000  Level FlightAware Transoceanic
Fri 07:06:00 AM 48.6341 -37.3367 251° West 483 556 36,000  Level FlightAware Transoceanic
Fri 07:07:00 AM 48.5909 -37.5291 251° West 483 556 36,000  Level FlightAware Transoceanic
Fri 07:08:00 AM 48.5473 -37.7212 251° West 483 556 36,000  Level FlightAware Transoceanic
Fri 07:09:00 AM 48.5034 -37.9130 251° West 483 556 36,000  Level FlightAware Transoceanic
Fri 07:10:00 AM 48.4593 -38.1044 251° West 483 556 36,000  Level FlightAware Transoceanic
Fri 07:11:00 AM 48.4147 -38.2955 251° West 483 556 36,000  Level FlightAware Transoceanic
Fri 07:12:00 AM 48.3699 -38.4862 250° West 483 556 36,000  Level FlightAware Transoceanic
Fri 07:13:00 AM 48.3247 -38.6766 250° West 483 556 36,000  Level FlightAware Transoceanic
Fri 07:14:00 AM 48.2793 -38.8667 250° West 483 556 36,000  Level FlightAware Transoceanic
Fri 07:15:00 AM 48.2335 -39.0564 250° West 483 556 36,000  Level FlightAware Transoceanic
Fri 07:16:00 AM 48.1874 -39.2458 250° West 483 556 36,000  Level FlightAware Transoceanic
Fri 07:17:00 AM 48.1410 -39.4349 250° West 483 556 36,000  Level FlightAware Transoceanic
Fri 07:18:00 AM 48.0943 -39.6236 250° West 483 556 36,000  Level FlightAware Transoceanic
Fri 07:19:00 AM 48.0473 -39.8120 249° West 483 556 36,000 333 Level FlightAware Transoceanic
Fri 07:20:00 AM 48.0042 -39.9833 249° West  Level FlightAware Approximate
Fri 07:21:00 AM 47.9608 -40.1543 249° West  Level FlightAware Approximate
Fri 07:21:00 AM 48.0000 -40.0000 257° West 473 544 37,000  Level ETMS Enhanced Traffic Management System
Fri 07:22:00 AM 47.9783 -40.1436 257° West  Level FlightAware Approximate
Fri 07:23:00 AM 47.9511 -40.3219 257° West  Level FlightAware Approximate
Fri 07:24:00 AM 47.9236 -40.4999 257° West  Level FlightAware Approximate
Fri 07:25:00 AM 47.8958 -40.6778 257° West  Level FlightAware Approximate
Fri 07:26:00 AM 47.8678 -40.8555 257° West  Level FlightAware Approximate
Fri 07:27:00 AM 47.7907 -41.3370 256° West 473 544 37,000  Level FlightAware Transoceanic
Fri 07:28:00 AM 47.7596 -41.5271 256° West 473 544 37,000  Level FlightAware Transoceanic
Fri 07:29:00 AM 47.7281 -41.7170 256° West 473 544 37,000  Level FlightAware Transoceanic
Fri 07:30:00 AM 47.6963 -41.9067 256° West 473 544 37,000  Level FlightAware Transoceanic
Fri 07:31:00 AM 47.6642 -42.0961 256° West 473 544 37,000  Level FlightAware Transoceanic
Fri 07:32:00 AM 47.6318 -42.2853 256° West 473 544 37,000  Level FlightAware Transoceanic
Fri 07:33:00 AM 47.5991 -42.4742 256° West 473 544 37,000  Level FlightAware Transoceanic
Fri 07:34:00 AM 47.5661 -42.6629 255° West 473 544 37,000  Level FlightAware Transoceanic
Fri 07:35:00 AM 47.5328 -42.8514 255° West 473 544 37,000  Level FlightAware Transoceanic
Fri 07:36:00 AM 47.4991 -43.0396 255° West 473 544 37,000  Level FlightAware Transoceanic
Fri 07:37:00 AM 47.4652 -43.2276 255° West 473 544 37,000  Level FlightAware Transoceanic
Fri 07:38:00 AM 47.4309 -43.4154 255° West 473 544 37,000  Level FlightAware Transoceanic
Fri 07:39:00 AM 47.3963 -43.6029 255° West 473 544 37,000  Level FlightAware Transoceanic
Fri 07:40:00 AM 47.3615 -43.7901 255° West 473 544 37,000  Level FlightAware Transoceanic
Fri 07:41:00 AM 47.3263 -43.9771 254° West 473 544 37,000  Level FlightAware Transoceanic
Fri 07:42:00 AM 47.2908 -44.1639 254° West 473 544 37,000  Level FlightAware Transoceanic
Fri 07:43:00 AM 47.2550 -44.3504 254° West 473 544 37,000  Level FlightAware Transoceanic
Fri 07:44:00 AM 47.2190 -44.5366 254° West 473 544 37,000  Level FlightAware Transoceanic
Fri 07:45:00 AM 47.1826 -44.7226 254° West 473 544 37,000  Level FlightAware Transoceanic
Fri 07:46:00 AM 47.1459 -44.9084 254° West 473 544 37,000  Level FlightAware Transoceanic
Fri 07:47:00 AM 47.1089 -45.0938 254° West 473 544 37,000  Level FlightAware Transoceanic
Fri 07:48:00 AM 47.0716 -45.2790 253° West 473 544 37,000  Level FlightAware Transoceanic
Fri 07:49:00 AM 47.0340 -45.4640 253° West 473 544 37,000  Level FlightAware Transoceanic
Fri 07:50:00 AM 46.9962 -45.6487 253° West 473 544 37,000  Level FlightAware Transoceanic
Fri 07:51:00 AM 46.9580 -45.8332 253° West 473 544 37,000  Level FlightAware Transoceanic
Fri 07:52:00 AM 46.9195 -46.0173 253° West 473 544 37,000  Level FlightAware Transoceanic
Fri 07:53:00 AM 46.8807 -46.2012 253° West 473 544 37,000  Level FlightAware Transoceanic
Fri 07:54:00 AM 46.8417 -46.3849 253° West 473 544 37,000  Level FlightAware Transoceanic
Fri 07:55:00 AM 46.8023 -46.5683 253° West 473 544 37,000  Level FlightAware Transoceanic
Fri 07:56:00 AM 46.7627 -46.7514 252° West 473 544 37,000  Level FlightAware Transoceanic
Fri 07:57:00 AM 46.7227 -46.9342 252° West 473 544 37,000  Level FlightAware Transoceanic
Fri 07:58:00 AM 46.6825 -47.1168 252° West 473 544 37,000  Level FlightAware Transoceanic
Fri 07:59:00 AM 46.6420 -47.2991 252° West 473 544 37,000  Level FlightAware Transoceanic
Fri 08:00:00 AM 46.6012 -47.4811 252° West 473 544 37,000  Level FlightAware Transoceanic
Fri 08:01:00 AM 46.5601 -47.6628 252° West 473 544 37,000  Level FlightAware Transoceanic
Fri 08:02:00 AM 46.5187 -47.8443 252° West 473 544 37,000  Level FlightAware Transoceanic
Fri 08:03:00 AM 46.4770 -48.0255 251° West 473 544 37,000  Level FlightAware Transoceanic
Fri 08:04:00 AM 46.4351 -48.2064 251° West 473 544 37,000  Level FlightAware Transoceanic
Fri 08:05:00 AM 46.3928 -48.3870 251° West 473 544 37,000  Level FlightAware Transoceanic
Fri 08:06:00 AM 46.3503 -48.5674 251° West 473 544 37,000  Level FlightAware Transoceanic
Fri 08:07:00 AM 46.3075 -48.7475 251° West 473 544 37,000  Level FlightAware Transoceanic
Fri 08:08:00 AM 46.2644 -48.9272 251° West 473 544 37,000  Level FlightAware Transoceanic
Fri 08:09:00 AM 46.2211 -49.1068 251° West 473 544 37,000  Level FlightAware Transoceanic
Fri 08:10:00 AM 46.1774 -49.2860 251° West 473 544 37,000  Level FlightAware Transoceanic
Fri 08:11:00 AM 46.1335 -49.4649 250° West 473 544 37,000  Level FlightAware Transoceanic
Fri 08:12:00 AM 46.0892 -49.6436 250° West 473 544 37,000  Level FlightAware Transoceanic
Fri 08:13:00 AM 46.0448 -49.8219 250° West 473 544 37,000  Level FlightAware Transoceanic
Fri 08:14:00 AM 45.9994 -49.9856 248° West  Level FlightAware Approximate
Fri 08:15:00 AM 46.0447 -49.8218 68° East  Level FlightAware Approximate
Fri 08:16:00 AM 46.0272 -49.9964 257° West  Level Estimated
Fri 08:16:00 AM 46.0000 -50.0000 257° West 428 493 37,000  Level ETMS Enhanced Traffic Management System
Fri 08:17:00 AM 45.9953 -50.1648 255° West  Level FlightAware Approximate
Fri 08:17:48 AM 45.9000 -50.5167 257° West 450 518 37,000  Level Gander Center
Fri 08:18:00 AM 45.9633 -50.3330 255° West  Level FlightAware Approximate
Fri 08:18:48 AM 45.8833 -50.6667 261° West 450 518 37,000  Level Gander Center
Fri 08:19:00 AM 45.9310 -50.5010 255° West  Level FlightAware Approximate
Fri 08:19:48 AM 45.8333 -50.8667 250° West 450 518 37,900  Level Gander Center
Fri 08:20:00 AM 45.8984 -50.6688 254° West  Level FlightAware Approximate
Fri 08:20:48 AM 45.8167 -51.0167 261° West 450 518 38,000  Level Gander Center
Fri 08:21:00 AM 45.8656 -50.8364 254° West  Level FlightAware Approximate
Fri 08:21:48 AM 45.7833 -51.2167 257° West 450 518 38,000  Level Gander Center
Fri 08:22:00 AM 45.8307 -51.0165 257° West  Level FlightAware Approximate
Fri 08:22:05 AM 45.7667 -51.2333 215° Southwest 450 518 38,000  Level Moncton Center
Fri 08:23:00 AM 45.8032 -51.1856 257° West  Level FlightAware Approximate
Fri 08:23:05 AM 45.7333 -51.4167 255° West 440 506 38,000  Level Moncton Center
Fri 08:24:05 AM 45.7167 -51.6000 263° West 440 506 38,000  Level Moncton Center
Fri 08:24:48 AM 45.6833 -51.7167 248° West 440 506 38,000  Level Gander Center
Fri 08:25:48 AM 45.6500 -51.8833 254° West 440 506 38,000  Level Gander Center
Fri 08:26:05 AM 45.6500 -51.9167 270° West 440 506 38,000  Level Moncton Center
Fri 08:27:05 AM 45.6333 -52.1000 263° West 440 506 38,000  Level Moncton Center
Fri 08:28:05 AM 45.6000 -52.2667 254° West 440 506 38,000  Level Moncton Center
Fri 08:28:48 AM 45.6000 -52.4000 270° West 440 506 38,000  Level Gander Center
Fri 08:29:48 AM 45.5833 -52.5667 262° West 440 506 38,000  Level Gander Center
Fri 08:30:48 AM 45.5667 -52.7500 263° West 450 518 38,000  Level Gander Center
Fri 08:31:48 AM 45.5333 -52.9167 254° West 440 506 38,000  Level Gander Center
Fri 08:32:05 AM 45.5333 -52.9500 270° West 450 518 38,000  Level Moncton Center
Fri 08:33:05 AM 45.5333 -53.1500 270° West 440 506 38,000  Level Moncton Center
Fri 08:39:07 AM 45.4090 -54.2300 270° West 438 504 38,000  Level FlightAware ADS-B
Fri 08:39:47 AM 45.3960 -54.3440 261° West 437 503 38,000  Level FlightAware ADS-B
Fri 08:40:27 AM 45.3840 -54.4480 261° West 437 503 38,000  Level FlightAware ADS-B
Fri 08:41:07 AM 45.3720 -54.5440 260° West 437 503 38,000  Level FlightAware ADS-B
Fri 08:41:57 AM 45.3570 -54.6650 260° West 437 503 38,000  Level FlightAware ADS-B
Fri 08:42:37 AM 45.3450 -54.7610 260° West 437 503 38,000  Level FlightAware ADS-B
Fri 08:43:17 AM 45.3330 -54.8570 260° West 437 503 38,000  Level FlightAware ADS-B
Fri 08:43:57 AM 45.3210 -54.9540 260° West 437 503 38,000  Level FlightAware ADS-B
Fri 08:44:37 AM 45.3090 -55.0500 260° West 437 503 38,000  Level FlightAware ADS-B
Fri 08:45:27 AM 45.2940 -55.1700 260° West 437 503 38,000  Level FlightAware ADS-B
Fri 08:46:07 AM 45.2820 -55.2670 260° West 437 503 38,000  Level FlightAware ADS-B
Fri 08:46:47 AM 45.2700 -55.3630 260° West 437 503 38,000  Level FlightAware ADS-B
Fri 08:47:27 AM 45.2580 -55.4590 260° West 437 503 38,000  Level FlightAware ADS-B
Fri 08:48:07 AM 45.2460 -55.5550 260° West 437 503 38,000  Level FlightAware ADS-B
Fri 08:48:47 AM 45.2340 -55.6510 260° West 437 503 38,000  Level FlightAware ADS-B
Fri 08:49:37 AM 45.2190 -55.7710 260° West 437 503 38,000  Level FlightAware ADS-B
Fri 08:53:52 AM 45.1020 -56.7300 261° West 431 496 38,000  Level FlightAware ADS-B
Fri 08:54:22 AM 45.0910 -56.8100 259° West 430 495 38,000  Level FlightAware ADS-B
Fri 08:55:12 AM 45.0720 -56.9500 259° West 426 490 38,000  Level FlightAware ADS-B
Fri 08:55:52 AM 45.0570 -57.0580 259° West 422 486 38,000  Level FlightAware ADS-B
Fri 08:56:37 AM 45.0410 -57.1750 259° West 420 483 38,000 71 Level FlightAware ADS-B
Fri 08:57:17 AM 45.0260 -57.2840 259° West 416 479 38,100 706 Climbing FlightAware ADS-B
Fri 08:58:02 AM 45.0090 -57.4060 259° West 409 471 39,000 635 Climbing FlightAware ADS-B
Fri 08:58:42 AM 44.9940 -57.5090 258° West 404 465 39,000  Level FlightAware ADS-B
Fri 08:59:27 AM 44.9780 -57.6240 259° West 404 465 39,000  Level FlightAware ADS-B
Fri 09:00:07 AM 44.9630 -57.7280 259° West 406 467 39,000  Level FlightAware ADS-B
Fri 09:00:42 AM 44.9490 -57.8220 258° West 408 470 39,000  Level FlightAware ADS-B
Fri 09:01:32 AM 44.9310 -57.9490 259° West 410 472 39,000  Level FlightAware ADS-B
Fri 09:02:12 AM 44.9160 -58.0520 258° West 411 473 39,000  Level FlightAware ADS-B
Fri 09:02:57 AM 44.8980 -58.1720 258° West 411 473 39,000  Level FlightAware ADS-B
Fri 09:03:37 AM 44.8820 -58.2760 258° West 412 474 39,000  Level FlightAware ADS-B
Fri 09:04:17 AM 44.8670 -58.3770 258° West 411 473 39,000  Level FlightAware ADS-B
Fri 09:05:02 AM 44.8480 -58.5000 258° West 410 472 39,000  Level FlightAware ADS-B
Fri 09:05:42 AM 44.8320 -58.6040 258° West 410 472 39,000  Level FlightAware ADS-B
Fri 09:06:27 AM 44.8140 -58.7190 258° West 411 473 39,000  Level FlightAware ADS-B
Fri 09:07:07 AM 44.7980 -58.8230 258° West 412 474 39,000  Level FlightAware ADS-B
Fri 09:07:47 AM 44.7810 -58.9290 257° West 413 475 39,000  Level FlightAware ADS-B
Fri 09:08:32 AM 44.7620 -59.0490 257° West 413 475 39,000  Level FlightAware ADS-B
Fri 09:09:12 AM 44.7450 -59.1520 257° West 411 473 39,000  Level FlightAware ADS-B
Fri 09:09:52 AM 44.7280 -59.2570 257° West 410 472 39,000  Level FlightAware ADS-B
Fri 09:10:37 AM 44.7100 -59.3710 258° West 409 471 39,000  Level FlightAware ADS-B
Fri 09:11:17 AM 44.6930 -59.4740 257° West 409 471 39,000  Level FlightAware ADS-B
Fri 09:11:57 AM 44.6750 -59.5780 256° West 409 471 39,000  Level FlightAware ADS-B
Fri 09:12:42 AM 44.6550 -59.6970 257° West 408 470 39,000  Level FlightAware ADS-B
Fri 09:13:22 AM 44.6380 -59.7970 257° West 408 470 39,000  Level FlightAware ADS-B
Fri 09:14:07 AM 44.6190 -59.9110 257° West 407 468 39,000  Level FlightAware ADS-B
Fri 09:14:47 AM 44.6010 -60.0150 256° West 406 467 39,000  Level FlightAware ADS-B
Fri 09:15:27 AM 44.5840 -60.1150 257° West 406 467 39,000  Level FlightAware ADS-B
Fri 09:16:12 AM 44.5630 -60.2330 256° West 404 465 39,000  Level FlightAware ADS-B
Fri 09:16:47 AM 44.5490 -60.3160 257° West 404 465 39,000  Level FlightAware ADS-B
Fri 09:17:27 AM 44.5310 -60.4180 256° West 403 464 39,000  Level FlightAware ADS-B
Fri 09:18:17 AM 44.5080 -60.5470 256° West 403 464 39,000  Level FlightAware ADS-B
Fri 09:18:52 AM 44.4920 -60.6300 255° West 402 463 39,000  Level FlightAware ADS-B
Fri 09:19:42 AM 44.4720 -60.7370 255° West 402 463 39,000  Level FlightAware ADS-B
Fri 09:20:22 AM 44.4550 -60.8220 254° West 402 463 39,000  Level FlightAware ADS-B
Fri 09:21:02 AM 44.4390 -60.9080 255° West 402 463 39,000  Level FlightAware ADS-B
Fri 09:21:42 AM 44.4230 -60.9940 255° West 402 463 39,000  Level FlightAware ADS-B
Fri 09:22:22 AM 44.4060 -61.0790 254° West 402 463 39,000  Level FlightAware ADS-B
Fri 09:23:12 AM 44.3860 -61.1860 255° West 402 463 39,000  Level FlightAware ADS-B
Fri 09:23:52 AM 44.3690 -61.2710 254° West 402 463 39,000  Level FlightAware ADS-B
Fri 09:24:32 AM 44.3530 -61.3570 255° West 402 463 39,000  Level FlightAware ADS-B
Fri 09:25:12 AM 44.3370 -61.4420 255° West 402 463 39,000  Level FlightAware ADS-B
Fri 09:25:52 AM 44.3200 -61.5280 255° West 402 463 39,000  Level FlightAware ADS-B
Fri 09:26:42 AM 44.3000 -61.6340 255° West 402 463 39,000  Level FlightAware ADS-B
Fri 09:27:22 AM 44.2830 -61.7200 255° West 402 463 39,000  Level FlightAware ADS-B
Fri 09:28:02 AM 44.2670 -61.8050 255° West 402 463 39,000  Level FlightAware ADS-B
Fri 09:28:48 AM 44.2000 -62.0667 255° West 400 460 39,000  Level Gander Center
Fri 09:29:05 AM 44.2000 -62.1167 270° West 390 449 39,000  Level Moncton Center
Fri 09:30:05 AM 44.1667 -62.2500 251° West 400 460 39,000  Level Moncton Center
Fri 09:31:05 AM 44.1333 -62.4000 253° West 400 460 39,000  Level Moncton Center
Fri 09:32:05 AM 44.1000 -62.5500 253° West 400 460 39,000  Level Moncton Center
Fri 09:33:05 AM 44.0667 -62.7000 253° West 400 460 39,000  Level Moncton Center
Fri 09:34:05 AM 44.0500 -62.8667 262° West 400 460 39,000  Level Moncton Center
Fri 09:35:05 AM 44.0333 -63.0000 260° West 400 460 39,000  Level Moncton Center
Fri 09:36:05 AM 44.0000 -63.1500 253° West 400 460 39,000  Level Moncton Center
Fri 09:37:05 AM 43.9667 -63.3000 253° West 400 460 39,000  Level Moncton Center
Fri 09:37:48 AM 43.9333 -63.4167 248° West 400 460 39,000  Level Gander Center
Fri 09:38:48 AM 43.9000 -63.5500 251° West 400 460 39,000  Level Gander Center
Fri 09:39:48 AM 43.8667 -63.7000 253° West 390 449 39,000  Level Gander Center
Fri 09:45:22 AM 43.7060 -64.5200 253° West 395 455 39,000  Level FlightAware ADS-B
Fri 09:46:07 AM 43.6810 -64.6330 253° West 395 455 39,000  Level FlightAware ADS-B
Fri 09:46:47 AM 43.6600 -64.7260 253° West 395 455 39,000  Level FlightAware ADS-B
Fri 09:47:27 AM 43.6390 -64.8240 254° West 394 453 39,000  Level FlightAware ADS-B
Fri 09:48:12 AM 43.6150 -64.9310 253° West 394 453 39,000  Level FlightAware ADS-B
Fri 09:48:52 AM 43.5930 -65.0260 252° West 393 452 39,000  Level FlightAware ADS-B
Fri 09:49:37 AM 43.5680 -65.1370 253° West 393 452 39,000  Level FlightAware ADS-B
Fri 09:50:17 AM 43.5470 -65.2300 253° West 393 452 39,000  Level FlightAware ADS-B
Fri 09:50:57 AM 43.5250 -65.3280 253° West 395 455 39,000  Level FlightAware ADS-B
Fri 09:51:42 AM 43.5010 -65.4350 253° West 395 455 39,000  Level FlightAware ADS-B
Fri 09:52:22 AM 43.4790 -65.5300 252° West 395 455 39,000  Level FlightAware ADS-B
Fri 09:53:02 AM 43.4570 -65.6270 253° West 395 455 39,000  Level FlightAware ADS-B
Fri 09:53:47 AM 43.4330 -65.7340 253° West 394 453 39,000  Level FlightAware ADS-B
Fri 09:54:27 AM 43.4110 -65.8280 252° West 396 456 39,000  Level FlightAware ADS-B
Fri 09:55:12 AM 43.3850 -65.9420 253° West 397 457 39,000  Level FlightAware ADS-B
Fri 09:55:52 AM 43.3620 -66.0390 252° West 399 459 39,000  Level FlightAware ADS-B
Fri 09:56:32 AM 43.3400 -66.1350 253° West 400 460 39,000  Level FlightAware ADS-B
Fri 09:57:17 AM 43.3140 -66.2430 252° West 401 461 39,000  Level FlightAware ADS-B
Fri 09:57:57 AM 43.2920 -66.3400 253° West 402 463 39,000  Level FlightAware ADS-B
Fri 09:58:52 AM 43.2630 -66.4660 252° West 402 463 39,000  Level FlightAware ADS-B
Fri 09:59:42 AM 43.2350 -66.5850 252° West 403 464 39,000  Level FlightAware ADS-B
Fri 10:00:27 AM 43.2070 -66.7010 252° West 403 464 39,000  Level FlightAware ADS-B
Fri 10:01:12 AM 43.1820 -66.8080 252° West 403 464 39,000  Level FlightAware ADS-B
Fri 10:01:57 AM 43.1600 -66.9050 253° West 403 464 39,000  Level FlightAware ADS-B
Fri 10:02:37 AM 43.1320 -67.0230 252° West 407 468 39,000  Level FlightAware ADS-B
Fri 10:03:12 AM 43.1160 -67.1100 256° West 412 474 39,000  Level FlightAware ADS-B
Fri 10:04:02 AM 43.0950 -67.2250 256° West 413 475 39,000  Level FlightAware ADS-B
Fri 10:04:42 AM 43.0800 -67.3110 257° West 413 475 39,000  Level FlightAware ADS-B
Fri 10:05:27 AM 43.0550 -67.4550 257° West 416 479 39,000  Level FlightAware ADS-B
Fri 10:06:22 AM 43.0300 -67.5910 256° West 415 478 39,000  Level FlightAware ADS-B
Fri 10:06:57 AM 43.0140 -67.6790 256° West 415 478 39,000  Level FlightAware ADS-B
Fri 10:07:42 AM 42.9930 -67.7990 257° West 414 476 39,000  Level FlightAware ADS-B
Fri 10:08:47 AM 42.9630 -67.9600 256° West 414 476 39,000  Level FlightAware ADS-B
Fri 10:09:27 AM 42.9460 -68.0570 257° West 414 476 39,000  Level FlightAware ADS-B
Fri 10:10:12 AM 42.9240 -68.1770 256° West 415 478 39,000  Level FlightAware ADS-B
Fri 10:10:52 AM 42.9060 -68.2740 256° West 415 478 39,000  Level FlightAware ADS-B
Fri 10:11:37 AM 42.8840 -68.3920 256° West 414 476 39,000  Level FlightAware ADS-B
Fri 10:12:17 AM 42.8660 -68.4880 256° West 414 476 39,000  Level FlightAware ADS-B
Fri 10:13:02 AM 42.8430 -68.6060 255° West 414 476 39,000  Level FlightAware ADS-B
Fri 10:13:57 AM 42.8180 -68.7400 256° West 414 476 39,000  Level FlightAware ADS-B
Fri 10:14:37 AM 42.7980 -68.8450 255° West 416 479 39,000  Level FlightAware ADS-B
Fri 10:15:22 AM 42.7770 -68.9540 255° West 418 481 39,000  Level FlightAware ADS-B
Fri 10:16:02 AM 42.7570 -69.0590 255° West 419 482 39,000  Level FlightAware ADS-B
Fri 10:16:47 AM 42.7350 -69.1720 255° West 420 483 39,000  Level FlightAware ADS-B
Fri 10:17:42 AM 42.7070 -69.3170 255° West 421 484 39,000  Level FlightAware ADS-B
Fri 10:18:22 AM 42.6860 -69.4220 255° West 421 484 39,000  Level FlightAware ADS-B
Fri 10:19:02 AM 42.6670 -69.5230 256° West 420 483 39,000  Level FlightAware ADS-B
Fri 10:19:47 AM 42.6440 -69.6390 255° West 420 483 39,000  Level FlightAware ADS-B
Fri 10:20:27 AM 42.6240 -69.7390 255° West 420 483 39,000  Level FlightAware ADS-B
Fri 10:21:12 AM 42.6010 -69.8550 255° West 421 484 39,000 -675 Level FlightAware ADS-B
Fri 10:21:47 AM 42.5850 -69.9330 254° West 420 483 38,100 -2,175 Descending FlightAware ADS-B
Fri 10:22:32 AM 42.5590 -70.0600 255° West 427 491 36,100 -2,933 Descending FlightAware ADS-B
Fri 10:23:17 AM 42.5340 -70.1830 255° West 432 497 33,700 -2,753 Descending FlightAware ADS-B
Fri 10:23:57 AM 42.5140 -70.2810 255° West 431 496 32,200 -1,553 Descending FlightAware ADS-B
Fri 10:24:42 AM 42.4900 -70.3950 254° West 421 484 31,500 -1,059 Descending FlightAware ADS-B
Fri 10:25:22 AM 42.4700 -70.4940 255° West 424 488 30,700 -1,275 Descending FlightAware ADS-B
Fri 10:26:02 AM 42.4490 -70.5940 254° West 429 494 29,800 -1,482 Descending FlightAware ADS-B
Fri 10:26:47 AM 42.4230 -70.7180 254° West 433 498 28,600 -1,765 Descending FlightAware ADS-B
Fri 10:27:27 AM 42.4020 -70.8170 254° West 423 487 27,300 -2,259 Descending FlightAware ADS-B
Fri 10:28:12 AM 42.3770 -70.9330 254° West 413 475 25,400 -2,259 Descending FlightAware ADS-B
Fri 10:28:52 AM 42.3580 -71.0320 255° West 397 457 24,100 -1,125 Descending FlightAware ADS-B
Fri 10:29:32 AM 42.3470 -71.1290 261° West 401 461 23,900 -635 Descending FlightAware ADS-B
Fri 10:30:17 AM 42.3180 -71.2350 250° West 399 459 23,200 -918 Descending FlightAware ADS-B
Fri 10:30:57 AM 42.2880 -71.3250 246° West 393 452 22,600 -975 Descending FlightAware ADS-B
Fri 10:31:37 AM 42.2580 -71.4150 246° West 384 442 21,900 -1,129 Descending FlightAware ADS-B
Fri 10:32:22 AM 42.2260 -71.5140 246° West 382 440 21,000 -1,129 Descending FlightAware ADS-B
Fri 10:33:02 AM 42.1970 -71.6010 246° West 377 434 20,300 -1,059 Descending FlightAware ADS-B
Fri 10:33:47 AM 42.1670 -71.6990 248° West 371 427 19,500 -1,050 Descending FlightAware ADS-B
Fri 10:34:22 AM 42.1610 -71.7780 264° West 370 426 18,900 -1,059 Descending FlightAware ADS-B
Fri 10:35:12 AM 42.1620 -71.8930 271° West 364 419 18,000 -1,067 Descending FlightAware ADS-B
Fri 10:35:52 AM 42.1620 -71.9820 270° West 361 415 17,300 -960 Descending FlightAware ADS-B
Fri 10:36:27 AM 42.1630 -72.0470 271° West 357 411 16,800 -918 Descending FlightAware ADS-B
Fri 10:37:17 AM 42.1640 -72.1630 271° West 350 403 16,000 -533 Descending FlightAware ADS-B
Fri 10:38:42 AM 42.1650 -72.3550 270° West 348 400 15,600 -200 Descending FlightAware ADS-B
Fri 10:39:17 AM 42.1650 -72.4310 270° West 349 402 15,600  Level FlightAware ADS-B
Fri 10:40:02 AM 42.1650 -72.5190 270° West 348 400 15,600  Level FlightAware ADS-B
Fri 10:41:12 AM 42.1650 -72.6820 270° West 348 400 15,600  Level FlightAware ADS-B
Fri 10:41:52 AM 42.1630 -72.7650 268° West 350 403 15,600 -375 Level FlightAware ADS-B
Fri 10:42:32 AM 42.1610 -72.8000 266° West 15,300 -583 Descending FlightAware ADS-B
Fri 10:43:04 AM 42.1514 -72.8908 266° West 348 400 14,900 -848 Descending Boston Center
Fri 10:44:04 AM 42.1447 -73.0058 266° West 348 400 14,000 -184 Descending Boston Center
Fri 10:50:07 AM 42.0870 -73.8030 266° West 335 386 13,600 -60 Descending FlightAware ADS-B
Fri 10:50:47 AM 42.0810 -73.8810 264° West 335 386 13,600  Level FlightAware ADS-B
Fri 10:51:27 AM 42.0740 -73.9510 262° West 335 386 13,600  Level FlightAware ADS-B
Fri 10:52:17 AM 42.0660 -74.0390 263° West 335 386 13,600 -575 Level FlightAware ADS-B
Fri 10:57:22 AM 41.6160 -74.3250 205° Southwest 351 404 10,200 -609 Descending FlightAware ADS-B
Fri 10:58:02 AM 41.5600 -74.3460 196° South 347 399 10,100 -75 Descending FlightAware ADS-B
Fri 10:58:42 AM 41.5070 -74.3660 196° South 347 399 10,100  Level FlightAware ADS-B
Fri 10:59:22 AM 41.4550 -74.3860 196° South 347 399 10,100 -695 Level FlightAware ADS-B
Fri 11:03:44 AM 41.1292 -74.5232 198° South 277 319 6,600 -755 Descending FlightAware ADS-B
Fri 11:04:00 AM 41.1102 -74.5309 197° South 275 316 6,600  Level FlightAware ADS-B
Fri 11:04:15 AM 41.0916 -74.5385 197° South 274 315 6,600  Level FlightAware ADS-B
Fri 11:04:30 AM 41.0724 -74.5462 197° South 275 316 6,600 -222 Level FlightAware ADS-B
Fri 11:04:42 AM 41.0575 -74.5494 189° South 279 321 6,500 -383 Descending FlightAware ADS-B
Fri 11:05:17 AM 41.0190 -74.5530 184° South 282 325 6,300 -500 Descending FlightAware ADS-B
Fri 11:05:42 AM 40.9840 -74.5570 185° South 279 321 6,000 -533 Descending FlightAware ADS-B
Fri 11:06:02 AM 40.9580 -74.5610 187° South 275 316 5,900 -462 Descending FlightAware ADS-B
Fri 11:06:08 AM 40.9474 -74.5621 184° South 274 315 5,800 -783 Descending FlightAware ADS-B
Fri 11:06:25 AM 40.9256 -74.5652 186° South 275 316 5,600 -632 Descending FlightAware ADS-B
Fri 11:06:27 AM 40.9227 -74.5656 186° South 273 314 5,600  Level FlightAware ADS-B
Fri 11:06:43 AM 40.9035 -74.5683 186° South 270 311 5,600  Level FlightAware ADS-B
Fri 11:07:08 AM 40.8714 -74.5729 186° South 275 316 5,600  Level FlightAware ADS-B
Fri 11:07:24 AM 40.8508 -74.5755 185° South 270 311 5,600  Level FlightAware ADS-B
Fri 11:07:27 AM 40.8479 -74.5755 180° South 276 318 5,600  Level FlightAware ADS-B
Fri 11:07:32 AM 40.8417 -74.5750 177° South 276 318 5,600  Level FlightAware ADS-B
Fri 11:07:36 AM 40.8360 -74.5740 172° South 277 319 5,600  Level FlightAware ADS-B
Fri 11:07:45 AM 40.8252 -74.5710 168° South 278 320 5,600  Level FlightAware ADS-B
Fri 11:07:47 AM 40.8228 -74.5702 166° South 276 318 5,600  Level FlightAware ADS-B
Fri 11:08:03 AM 40.8025 -74.5638 167° South 278 320 5,600  Level FlightAware ADS-B
Fri 11:08:11 AM 40.7922 -74.5606 167° South 281 323 5,600  Level FlightAware ADS-B
Fri 11:08:36 AM 40.7615 -74.5507 166° South 281 323 5,600  Level FlightAware ADS-B
Fri 11:08:51 AM 40.7423 -74.5443 166° South 276 318 5,600  Level FlightAware ADS-B
Fri 11:08:52 AM 40.7416 -74.5441 168° South 276 318 5,600  Level FlightAware ADS-B
Fri 11:09:07 AM 40.7224 -74.5376 166° South 276 318 5,600  Level FlightAware ADS-B
Fri 11:09:28 AM 40.6963 -74.5288 166° South 280 322 5,600  Level FlightAware ADS-B
Fri 11:10:04 AM 40.6513 -74.5129 165° South 276 318 5,600  Level FlightAware ADS-B
Fri 11:10:20 AM 40.6321 -74.5057 164° South 273 314 5,600  Level FlightAware ADS-B
Fri 11:10:33 AM 40.6161 -74.4998 164° South 280 322 5,600  Level FlightAware ADS-B
Fri 11:10:35 AM 40.6132 -74.4987 164° South 275 316 5,600  Level FlightAware ADS-B
Fri 11:10:51 AM 40.5940 -74.4916 164° South 276 318 5,600  Level FlightAware ADS-B
Fri 11:11:06 AM 40.5756 -74.4846 164° South 275 316 5,600  Level FlightAware ADS-B
Fri 11:11:22 AM 40.5565 -74.4768 163° South 270 311 5,600 -194 Level FlightAware ADS-B
Fri 11:11:37 AM 40.5385 -74.4695 163° South 273 314 5,500 -563 Descending FlightAware ADS-B
Fri 11:11:54 AM 40.5176 -74.4608 162° South 275 316 5,300 -621 Descending FlightAware ADS-B
Fri 11:12:06 AM 40.5028 -74.4550 163° South 273 314 5,200 -667 Descending FlightAware ADS-B
Fri 11:12:12 AM 40.4954 -74.4514 160° South 274 315 5,100 -1,200 Descending FlightAware ADS-B
Fri 11:12:16 AM 40.4915 -74.4489 154° Southeast 274 315 5,000 -600 Descending FlightAware ADS-B
Fri 11:12:22 AM 40.4848 -74.4425 144° Southeast 271 312 5,000 -600 Level FlightAware ADS-B
Fri 11:12:26 AM 40.4812 -74.4381 137° Southeast 271 312 4,900 -429 Descending FlightAware ADS-B
Fri 11:12:36 AM 40.4736 -74.4253 128° Southeast 264 304 4,900 -462 Level FlightAware ADS-B
Fri 11:12:52 AM 40.4625 -74.4049 126° Southeast 254 292 4,700 -563 Descending FlightAware ADS-B
Fri 11:13:08 AM 40.4522 -74.3860 126° Southeast 247 284 4,600 -706 Descending FlightAware ADS-B
Fri 11:13:09 AM 40.4517 -74.3848 119° Southeast 244 281 4,500 -545 Descending FlightAware ADS-B
Fri 11:13:19 AM 40.4448 -74.3723 126° Southeast 234 269 4,500 -429 Level FlightAware ADS-B
Fri 11:13:23 AM 40.4427 -74.3685 126° Southeast 231 266 4,400 -462 Descending FlightAware ADS-B
Fri 11:13:32 AM 40.4371 -74.3580 125° Southeast 224 258 4,400 -353 Level FlightAware ADS-B
Fri 11:13:40 AM 40.4331 -74.3489 120° Southeast 222 255 4,300 -643 Descending FlightAware ADS-B
Fri 11:14:00 AM 40.4333 -74.3242 89° East 222 255 4,100 -462 Descending FlightAware ADS-B
Fri 11:14:06 AM 40.4369 -74.3181 52° Northeast 227 261 4,100 -400 Level FlightAware ADS-B
Fri 11:14:15 AM 40.4432 -74.3127 33° Northeast 193 222 4,000 -333 Descending FlightAware ADS-B
Fri 11:14:24 AM 40.4505 -74.3083 25° Northeast 182 209 4,000 -400 Level FlightAware ADS-B
Fri 11:14:45 AM 40.4664 -74.2985 25° Northeast 179 206 3,800 -632 Descending FlightAware ADS-B
Fri 11:15:02 AM 40.4796 -74.2905 25° Northeast 182 209 3,600 -522 Descending FlightAware ADS-B
Fri 11:15:08 AM 40.4838 -74.2880 24° Northeast 187 215 3,600 -375 Level FlightAware ADS-B
Fri 11:15:18 AM 40.4915 -74.2830 26° Northeast 179 206 3,500 -600 Descending FlightAware ADS-B
Fri 11:15:28 AM 40.4984 -74.2786 26° Northeast 177 204 3,400 -923 Descending FlightAware ADS-B
Fri 11:15:44 AM 40.5104 -74.2706 27° Northeast 183 211 3,100 -1,161 Descending FlightAware ADS-B
Fri 11:15:59 AM 40.5219 -74.2631 26° Northeast 182 209 2,800 -1,125 Descending FlightAware ADS-B
Fri 11:16:16 AM 40.5347 -74.2547 27° Northeast 184 212 2,500 -1,000 Descending FlightAware ADS-B
Fri 11:16:35 AM 40.5493 -74.2451 27° Northeast 183 211 2,200 -947 Descending FlightAware ADS-B
Fri 11:16:54 AM 40.5638 -74.2357 26° Northeast 183 211 1,900 -1,029 Descending FlightAware ADS-B
Fri 11:17:10 AM 40.5754 -74.2279 27° Northeast 174 200 1,600 -875 Descending FlightAware ADS-B
Fri 11:17:42 AM 40.5970 -74.2140 26° Northeast 172 198 1,200 -875 Descending FlightAware ADS-B
Fri 11:17:58 AM 40.6094 -74.2058 27° Northeast 161 185 900 -1,161 Descending FlightAware ADS-B
Fri 11:18:13 AM 40.6192 -74.1993 27° Northeast 147 169 600 -909 Descending FlightAware ADS-B
Fri 11:18:31 AM 40.6295 -74.1926 26° Northeast 137 158 400 -750 Descending FlightAware ADS-B
Fri 11:18:45 AM 40.6371 -74.1876 27° Northeast 128 147 200 -857 Descending FlightAware ADS-B
Fri 11:19:02 AM 40.6460 -74.1816 27° Northeast 135 155 -706 Descending FlightAware ADS-B

Login

Don't have an account? Register now (free) for customized features, flight alerts, and more!